createdAt,value
2019-05-23T00:01:12.159Z,29.30
2019-05-23T00:03:49.569Z,28.17
2019-05-23T00:06:21.398Z,27.77
2019-05-23T00:08:52.544Z,30.12
2019-05-23T00:11:52.636Z,32.65
2019-05-23T00:14:37.931Z,29.07
2019-05-23T00:17:10.448Z,30.30
2019-05-23T00:19:40.614Z,29.75
2019-05-23T00:22:11.539Z,32.60
2019-05-23T00:24:43.183Z,33.88
2019-05-23T00:27:13.030Z,35.25
2019-05-23T00:29:45.503Z,34.25
2019-05-23T00:32:30.901Z,31.17
2019-05-23T00:35:02.333Z,35.28
2019-05-23T00:37:33.770Z,35.35
2019-05-23T00:40:04.140Z,32.17
2019-05-23T00:42:34.021Z,30.37
2019-05-23T00:45:06.088Z,34.45
2019-05-23T00:47:37.112Z,31.52
2019-05-23T00:50:08.641Z,31.20
2019-05-23T00:52:38.530Z,31.77
2019-05-23T00:55:10.095Z,31.12
2019-05-23T00:57:41.785Z,32.78
2019-05-23T01:00:14.667Z,31.10
2019-05-23T01:02:44.922Z,32.33
2019-05-23T01:05:14.833Z,31.87
2019-05-23T01:07:45.558Z,32.75
2019-05-23T01:10:18.390Z,36.50
2019-05-23T01:12:48.880Z,35.28
2019-05-23T01:15:20.583Z,34.67
2019-05-23T01:17:51.317Z,35.13
2019-05-23T01:20:25.231Z,37.48
2019-05-23T01:22:55.864Z,34.80
2019-05-23T01:25:27.284Z,35.20
2019-05-23T01:27:58.398Z,33.55
2019-05-23T01:30:31.568Z,32.50
2019-05-23T01:33:01.896Z,34.60
2019-05-23T01:35:32.825Z,37.28
2019-05-23T01:38:05.075Z,35.80
2019-05-23T01:40:36.036Z,33.80
2019-05-23T01:43:07.781Z,34.75
2019-05-23T01:45:40.543Z,35.70
2019-05-23T01:48:11.211Z,40.83
2019-05-23T01:50:41.994Z,38.78
2019-05-23T01:53:12.696Z,38.88
2019-05-23T01:55:43.893Z,35.63
2019-05-23T01:58:14.196Z,41.28
2019-05-23T02:00:44.474Z,38.63
2019-05-23T02:03:15.071Z,39.03
2019-05-23T02:05:45.851Z,36.48
2019-05-23T02:08:16.831Z,38.73
2019-05-23T02:10:47.285Z,37.95
2019-05-23T02:13:17.923Z,37.08
2019-05-23T02:15:47.863Z,37.67
2019-05-23T02:18:19.111Z,40.00
2019-05-23T02:20:49.575Z,37.98
2019-05-23T02:23:21.165Z,37.65
2019-05-23T02:25:52.240Z,40.15
2019-05-23T02:28:23.951Z,38.65
2019-05-23T02:30:54.380Z,35.30
2019-05-23T02:33:25.292Z,41.65
2019-05-23T02:35:55.258Z,41.48
2019-05-23T02:38:47.585Z,39.35
2019-05-23T02:41:39.867Z,39.80
2019-05-23T02:44:14.189Z,36.15
2019-05-23T02:47:01.935Z,36.30
2019-05-23T02:49:33.712Z,39.18
2019-05-23T02:52:17.818Z,35.50
2019-05-23T02:54:48.092Z,37.33
2019-05-23T02:57:22.104Z,41.23
2019-05-23T02:59:54.668Z,45.33
2019-05-23T03:02:51.025Z,43.15
2019-05-23T03:05:22.608Z,41.42
2019-05-23T03:07:53.482Z,47.62
2019-05-23T03:10:27.119Z,47.27
2019-05-23T03:12:58.767Z,48.78
2019-05-23T03:15:31.249Z,51.77
2019-05-23T03:18:04.153Z,54.65
2019-05-23T03:20:35.483Z,48.70
2019-05-23T03:23:12.400Z,41.15
2019-05-23T03:26:20.793Z,42.27
2019-05-23T03:28:51.264Z,51.30
2019-05-23T03:31:58.871Z,44.00
2019-05-23T03:34:32.498Z,48.38
2019-05-23T03:37:03.987Z,50.25
2019-05-23T03:39:35.032Z,52.60
2019-05-23T03:42:06.140Z,56.60
2019-05-23T03:44:36.390Z,50.75
2019-05-23T03:47:07.988Z,50.25
2019-05-23T03:49:39.317Z,47.67
2019-05-23T03:52:10.594Z,55.40
2019-05-23T03:54:42.092Z,56.65
2019-05-23T03:57:12.204Z,55.38
2019-05-23T03:59:43.690Z,50.67
2019-05-23T04:02:15.724Z,51.18
2019-05-23T04:04:47.055Z,47.85
2019-05-23T04:07:17.127Z,46.55
2019-05-23T04:09:47.673Z,50.23
2019-05-23T04:12:17.489Z,49.63
2019-05-23T04:14:47.413Z,50.75
2019-05-23T04:17:17.027Z,45.10
2019-05-23T04:19:47.868Z,48.17
2019-05-23T04:22:17.766Z,46.85
2019-05-23T04:24:48.264Z,51.90
2019-05-23T04:27:19.176Z,40.70
2019-05-23T04:29:49.873Z,43.48
2019-05-23T04:32:19.813Z,30.82
2019-05-23T04:34:50.317Z,30.52
2019-05-23T04:37:20.709Z,27.32
2019-05-23T04:39:50.747Z,27.02
2019-05-23T04:42:21.033Z,27.40
2019-05-23T04:44:51.663Z,24.43
2019-05-23T04:47:22.545Z,26.77
2019-05-23T04:49:52.893Z,24.92
2019-05-23T04:52:23.270Z,22.93
2019-05-23T04:54:53.335Z,22.60
2019-05-23T04:57:24.227Z,21.93
2019-05-23T04:59:54.401Z,23.95
2019-05-23T05:02:27.048Z,22.00
2019-05-23T05:04:56.541Z,22.07
2019-05-23T05:07:26.886Z,21.95
2019-05-23T05:09:57.508Z,20.80
2019-05-23T05:12:28.463Z,23.75
2019-05-23T05:14:58.941Z,20.43
2019-05-23T05:17:28.657Z,21.42
2019-05-23T05:20:00.210Z,20.27
2019-05-23T05:22:30.428Z,21.80
2019-05-23T05:25:01.962Z,22.77
2019-05-23T05:27:33.215Z,22.90
2019-05-23T05:30:02.931Z,19.62
2019-05-23T05:32:44.342Z,17.48
2019-05-23T05:35:05.527Z,18.92
2019-05-23T05:37:35.533Z,19.98
2019-05-23T05:40:08.351Z,20.20
2019-05-23T05:42:41.150Z,20.57
2019-05-23T05:45:12.198Z,19.07
2019-05-23T05:47:42.152Z,22.60
2019-05-23T05:50:13.660Z,20.10
2019-05-23T05:52:44.393Z,21.33
2019-05-23T05:55:14.567Z,22.30
2019-05-23T05:57:44.816Z,20.23
2019-05-23T06:00:31.794Z,19.52
2019-05-23T06:03:05.165Z,20.60
2019-05-23T06:05:44.749Z,20.17
2019-05-23T06:08:16.063Z,20.80
2019-05-23T06:10:46.522Z,18.07
2019-05-23T06:13:16.029Z,18.70
2019-05-23T06:15:46.602Z,18.57
2019-05-23T06:18:16.711Z,16.50
2019-05-23T06:20:47.618Z,18.80
2019-05-23T06:23:18.878Z,17.32
2019-05-23T06:25:48.966Z,18.15
2019-05-23T06:28:19.784Z,20.77
2019-05-23T06:30:51.548Z,20.00
2019-05-23T06:33:23.663Z,17.87
2019-05-23T06:35:52.786Z,18.85
2019-05-23T06:38:23.399Z,16.32
2019-05-23T06:40:53.709Z,20.37
2019-05-23T06:43:24.110Z,18.52
2019-05-23T06:45:54.805Z,18.45
2019-05-23T06:48:25.422Z,17.30
2019-05-23T06:50:55.336Z,16.65
2019-05-23T06:53:24.845Z,22.52
2019-05-23T06:55:56.437Z,18.67
2019-05-23T06:58:27.005Z,16.45
2019-05-23T07:00:57.585Z,21.62
2019-05-23T07:03:41.774Z,15.53
2019-05-23T07:06:00.632Z,13.83
2019-05-23T07:08:32.197Z,14.53
2019-05-23T07:11:01.838Z,17.73
2019-05-23T07:13:34.354Z,14.38
2019-05-23T07:16:04.752Z,16.27
2019-05-23T07:18:34.833Z,16.97
2019-05-23T07:21:04.854Z,19.77
2019-05-23T07:23:35.471Z,22.20
2019-05-23T07:26:06.333Z,18.52
2019-05-23T07:28:36.597Z,18.67
2019-05-23T07:31:07.024Z,19.95
2019-05-23T07:33:36.962Z,17.32
2019-05-23T07:36:07.692Z,17.70
2019-05-23T07:38:37.707Z,16.75
2019-05-23T07:41:07.442Z,17.07
2019-05-23T07:43:36.736Z,17.23
2019-05-23T07:46:07.332Z,17.82
2019-05-23T07:48:37.741Z,17.85
2019-05-23T07:51:08.409Z,17.50
2019-05-23T07:54:03.024Z,15.90
2019-05-23T07:56:34.472Z,15.95
2019-05-23T07:59:03.787Z,17.60
2019-05-23T08:01:36.741Z,18.65
2019-05-23T08:04:20.421Z,19.02
2019-05-23T08:06:39.035Z,16.93
2019-05-23T08:09:09.928Z,16.95
2019-05-23T08:11:39.906Z,16.40
2019-05-23T08:14:12.157Z,16.77
2019-05-23T08:16:42.299Z,17.80
2019-05-23T08:19:19.180Z,15.20
2019-05-23T08:21:44.354Z,17.50
2019-05-23T08:24:16.047Z,17.55
2019-05-23T08:26:47.898Z,16.55
2019-05-23T08:29:26.807Z,20.12
2019-05-23T08:31:50.657Z,19.95
2019-05-23T08:34:37.868Z,21.05
2019-05-23T08:36:53.213Z,22.93
2019-05-23T08:39:25.492Z,21.12
2019-05-23T08:41:55.967Z,20.37
2019-05-23T08:44:26.175Z,23.00
2019-05-23T08:46:56.267Z,20.70
2019-05-23T08:49:26.084Z,19.40
2019-05-23T08:51:56.584Z,25.10
2019-05-23T08:54:26.548Z,21.02
2019-05-23T08:56:56.699Z,20.50
2019-05-23T08:59:26.632Z,21.70
2019-05-23T09:01:57.565Z,20.40
2019-05-23T09:04:28.078Z,21.82
2019-05-23T09:06:58.381Z,21.00
2019-05-23T09:09:30.333Z,18.65
2019-05-23T09:12:01.353Z,22.05
2019-05-23T09:14:32.072Z,18.20
2019-05-23T09:17:02.704Z,17.55
2019-05-23T09:19:33.275Z,22.42
2019-05-23T09:22:03.297Z,19.15
2019-05-23T09:24:33.561Z,19.90
2019-05-23T09:27:04.136Z,19.85
2019-05-23T09:29:34.293Z,16.20
2019-05-23T09:32:06.547Z,16.32
2019-05-23T09:34:37.071Z,16.20
2019-05-23T09:37:08.353Z,16.52
2019-05-23T09:39:39.031Z,15.30
2019-05-23T09:42:12.076Z,14.63
2019-05-23T09:44:41.182Z,15.35
2019-05-23T09:47:11.531Z,13.45
2019-05-23T09:49:41.059Z,15.28
2019-05-23T09:52:11.682Z,15.00
2019-05-23T09:54:42.132Z,16.67
2019-05-23T09:57:13.124Z,13.22
2019-05-23T09:59:43.365Z,11.05
2019-05-23T10:02:14.020Z,12.28
2019-05-23T10:04:44.758Z,13.40
2019-05-23T10:07:15.737Z,13.55
2019-05-23T10:09:46.528Z,13.05
2019-05-23T10:12:16.493Z,13.53
2019-05-23T10:14:46.403Z,13.50
2019-05-23T10:17:16.519Z,14.18
2019-05-23T10:19:47.337Z,11.95
2019-05-23T10:22:16.836Z,12.30
2019-05-23T10:24:46.748Z,10.82
2019-05-23T10:27:16.960Z,11.93
2019-05-23T10:29:47.096Z,12.78
2019-05-23T10:32:16.827Z,10.15
2019-05-23T10:34:46.447Z,11.57
2019-05-23T10:37:16.305Z,10.05
2019-05-23T10:39:50.236Z,9.18
2019-05-23T10:42:22.613Z,8.78
2019-05-23T10:44:52.313Z,10.60
2019-05-23T10:47:22.693Z,9.60
2019-05-23T10:49:54.168Z,10.88
2019-05-23T10:52:24.201Z,10.38
2019-05-23T10:54:54.277Z,9.48
2019-05-23T10:57:25.215Z,9.18
2019-05-23T10:59:55.276Z,10.55
2019-05-23T11:02:27.154Z,12.82
2019-05-23T11:04:57.046Z,10.05
2019-05-23T11:07:27.369Z,7.12
2019-05-23T11:09:57.739Z,8.20
2019-05-23T11:12:28.283Z,7.50
2019-05-23T11:14:58.774Z,8.08
2019-05-23T11:17:28.739Z,7.12
2019-05-23T11:19:58.869Z,7.80
2019-05-23T11:22:28.553Z,7.30
2019-05-23T11:24:58.894Z,7.37
2019-05-23T11:27:29.259Z,8.18
2019-05-23T11:29:59.024Z,8.78
2019-05-23T11:32:28.847Z,7.00
2019-05-23T11:34:59.043Z,7.33
2019-05-23T11:37:29.311Z,6.28
2019-05-23T11:39:58.958Z,7.12
2019-05-23T11:42:29.034Z,9.68
2019-05-23T11:44:59.120Z,6.80
2019-05-23T11:47:32.113Z,6.70
2019-05-23T11:50:01.869Z,8.03
2019-05-23T11:52:32.866Z,7.03
2019-05-23T11:55:03.832Z,5.35
2019-05-23T11:57:37.843Z,6.00
2019-05-23T12:00:08.271Z,6.62
2019-05-23T12:02:41.504Z,7.83
2019-05-23T12:05:19.483Z,8.88
2019-05-23T12:07:50.681Z,5.90
2019-05-23T12:10:20.896Z,6.70
2019-05-23T12:12:51.130Z,8.38
2019-05-23T12:15:26.363Z,5.58
2019-05-23T12:17:56.058Z,5.95
2019-05-23T12:20:26.632Z,6.65
2019-05-23T12:22:56.882Z,5.00
2019-05-23T12:25:27.549Z,5.60
2019-05-23T12:27:57.543Z,5.17
2019-05-23T12:30:28.025Z,7.03
2019-05-23T12:32:57.692Z,6.42
2019-05-23T12:35:27.836Z,6.12
2019-05-23T12:37:58.008Z,6.53
2019-05-23T12:40:28.751Z,7.80
2019-05-23T12:42:59.039Z,7.53
2019-05-23T12:45:29.099Z,5.92
2019-05-23T12:48:06.116Z,7.90
2019-05-23T12:50:40.587Z,6.28
2019-05-23T12:53:12.310Z,7.17
2019-05-23T12:55:42.654Z,5.47
2019-05-23T12:58:12.931Z,5.28
2019-05-23T13:00:55.760Z,7.03
2019-05-23T13:03:25.503Z,6.55
2019-05-23T13:05:55.582Z,4.03
2019-05-23T13:08:25.309Z,4.08
2019-05-23T13:10:55.372Z,4.10
2019-05-23T13:13:25.245Z,3.60
2019-05-23T13:15:55.218Z,5.42
2019-05-23T13:18:27.349Z,7.30
2019-05-23T13:20:59.499Z,6.25
2019-05-23T13:23:29.943Z,4.05
2019-05-23T13:26:00.745Z,5.75
2019-05-23T13:28:31.493Z,4.28
2019-05-23T13:31:01.339Z,6.17
2019-05-23T13:33:32.309Z,5.80
2019-05-23T13:36:03.752Z,6.83
2019-05-23T13:38:34.065Z,4.60
2019-05-23T13:41:04.385Z,3.52
2019-05-23T13:43:36.119Z,6.08
2019-05-23T13:46:06.231Z,4.10
2019-05-23T13:48:36.112Z,5.12
2019-05-23T13:51:06.139Z,4.37
2019-05-23T13:53:35.742Z,5.95
2019-05-23T13:56:05.877Z,5.87
2019-05-23T13:58:36.658Z,5.35
2019-05-23T14:01:09.476Z,4.00
2019-05-23T14:03:39.787Z,4.42
2019-05-23T14:06:09.779Z,4.95
2019-05-23T14:08:40.751Z,6.15
2019-05-23T14:11:10.914Z,5.28
2019-05-23T14:13:41.358Z,4.15
2019-05-23T14:16:12.084Z,7.60
2019-05-23T14:18:41.535Z,5.05
2019-05-23T14:21:11.590Z,4.15
2019-05-23T14:23:41.695Z,7.12
2019-05-23T14:26:13.318Z,5.92
2019-05-23T14:28:43.914Z,3.52
2019-05-23T14:31:22.648Z,3.08
2019-05-23T14:34:17.427Z,3.62
2019-05-23T14:37:05.981Z,4.50
2019-05-23T14:39:41.569Z,5.78
2019-05-23T14:42:30.780Z,4.83
2019-05-23T14:45:00.809Z,5.67
2019-05-23T14:47:52.512Z,2.85
2019-05-23T14:50:36.772Z,3.77
2019-05-23T14:53:07.195Z,5.40
2019-05-23T14:55:37.484Z,3.42
2019-05-23T14:58:08.434Z,3.77
2019-05-23T15:00:39.447Z,3.72
2019-05-23T15:03:09.284Z,6.25
2019-05-23T15:05:38.640Z,5.20
2019-05-23T15:08:08.591Z,3.85
2019-05-23T15:10:39.032Z,3.65
2019-05-23T15:13:09.665Z,5.95
2019-05-23T15:15:39.843Z,4.15
2019-05-23T15:18:10.014Z,3.60
2019-05-23T15:20:40.346Z,3.50
2019-05-23T15:23:10.171Z,5.25
2019-05-23T15:25:39.610Z,3.40
2019-05-23T15:28:09.909Z,4.70
2019-05-23T15:30:39.868Z,3.42
2019-05-23T15:33:10.107Z,4.00
2019-05-23T15:35:39.888Z,4.60
2019-05-23T15:38:10.058Z,4.15
2019-05-23T15:40:40.903Z,5.28
2019-05-23T15:43:10.839Z,4.45
2019-05-23T15:45:41.540Z,3.22
2019-05-23T15:48:12.245Z,4.45
2019-05-23T15:50:47.443Z,2.92
2019-05-23T15:53:33.699Z,5.03
2019-05-23T15:56:31.610Z,7.70
2019-05-23T15:59:18.031Z,4.53
2019-05-23T16:02:01.313Z,3.37
2019-05-23T16:04:32.367Z,3.27
2019-05-23T16:07:03.872Z,2.98
2019-05-23T16:09:34.438Z,4.12
2019-05-23T16:12:05.127Z,5.22
2019-05-23T16:14:35.601Z,4.12
2019-05-23T16:17:07.644Z,3.17
2019-05-23T16:19:38.430Z,3.85
2019-05-23T16:22:08.662Z,7.35
2019-05-23T16:24:38.712Z,3.08
2019-05-23T16:27:08.557Z,2.70
2019-05-23T16:29:39.161Z,4.53
2019-05-23T16:32:09.112Z,3.20
2019-05-23T16:34:39.719Z,6.22
2019-05-23T16:37:09.270Z,3.40
2019-05-23T16:39:47.226Z,2.95
2019-05-23T16:42:12.305Z,3.70
2019-05-23T16:44:43.450Z,4.20
2019-05-23T16:47:13.668Z,5.58
2019-05-23T16:49:43.327Z,2.52
2019-05-23T16:52:13.718Z,4.12
2019-05-23T16:54:46.088Z,3.05
2019-05-23T16:57:34.368Z,4.15
2019-05-23T17:00:42.547Z,1.98
2019-05-23T17:03:34.704Z,5.05
2019-05-23T17:06:26.917Z,3.02
2019-05-23T17:09:19.301Z,2.22
2019-05-23T17:12:06.798Z,4.08
2019-05-23T17:14:43.031Z,4.08
2019-05-23T17:17:56.867Z,3.27
2019-05-23T17:22:02.974Z,3.65
2019-05-23T17:23:17.367Z,6.55
2019-05-23T17:25:52.587Z,2.55
2019-05-23T17:28:26.200Z,3.35
2019-05-23T17:31:07.668Z,2.25
2019-05-23T17:33:38.522Z,2.70
2019-05-23T17:36:08.530Z,4.60
2019-05-23T17:38:38.873Z,6.28
2019-05-23T17:41:09.389Z,4.58
2019-05-23T17:43:39.363Z,3.75
2019-05-23T17:46:09.738Z,2.60
2019-05-23T17:48:39.681Z,2.35
2019-05-23T17:51:09.917Z,3.22
2019-05-23T17:53:39.692Z,3.05
2019-05-23T17:56:10.426Z,5.17
2019-05-23T17:58:41.017Z,3.65
2019-05-23T18:01:11.381Z,3.55
2019-05-23T18:03:41.382Z,2.50
2019-05-23T18:06:12.687Z,1.90
2019-05-23T18:08:44.785Z,3.40
2019-05-23T18:11:15.877Z,4.55
2019-05-23T18:13:45.684Z,2.00
2019-05-23T18:16:16.394Z,5.30
2019-05-23T18:18:46.914Z,4.65
2019-05-23T18:21:17.502Z,3.22
2019-05-23T18:23:48.609Z,7.05
2019-05-23T18:26:19.418Z,2.85
2019-05-23T18:28:50.251Z,4.92
2019-05-23T18:31:25.274Z,2.25
2019-05-23T18:33:55.990Z,2.67
2019-05-23T18:36:27.251Z,3.90
2019-05-23T18:38:57.622Z,2.47
2019-05-23T18:41:29.273Z,7.00
2019-05-23T18:43:59.992Z,4.67
2019-05-23T18:46:38.120Z,5.10
2019-05-23T18:49:10.077Z,3.25
2019-05-23T18:51:41.687Z,3.35
2019-05-23T18:54:12.388Z,3.35
2019-05-23T18:56:43.098Z,2.95
2019-05-23T18:59:13.800Z,4.45
2019-05-23T19:01:44.021Z,4.70
2019-05-23T19:04:14.542Z,5.45
2019-05-23T19:06:44.904Z,3.22
2019-05-23T19:09:17.174Z,4.10
2019-05-23T19:11:47.593Z,3.47
2019-05-23T19:14:18.524Z,4.28
2019-05-23T19:16:48.559Z,5.47
2019-05-23T19:19:19.110Z,4.42
2019-05-23T19:21:49.252Z,5.20
2019-05-23T19:24:19.603Z,6.10
2019-05-23T19:26:50.448Z,4.80
2019-05-23T19:29:23.138Z,4.90
2019-05-23T19:31:54.399Z,4.12
2019-05-23T19:34:25.419Z,4.85
2019-05-23T19:36:56.292Z,4.67
2019-05-23T19:39:28.868Z,7.05
2019-05-23T19:42:00.020Z,3.35
2019-05-23T19:44:30.982Z,3.75
2019-05-23T19:47:02.022Z,3.35
2019-05-23T19:49:32.385Z,2.65
2019-05-23T19:52:03.118Z,3.83
2019-05-23T19:54:33.963Z,4.80
2019-05-23T19:57:04.473Z,4.05
2019-05-23T19:59:34.853Z,5.53
2019-05-23T20:02:33.596Z,4.35
2019-05-23T20:05:15.125Z,3.47
2019-05-23T20:07:45.993Z,4.30
2019-05-23T20:10:17.791Z,4.62
2019-05-23T20:12:48.372Z,7.25
2019-05-23T20:15:19.473Z,6.30
2019-05-23T20:17:51.582Z,7.28
2019-05-23T20:20:21.158Z,4.62
2019-05-23T20:22:51.528Z,5.90
2019-05-23T20:25:21.655Z,5.47
2019-05-23T20:27:53.141Z,4.78
2019-05-23T20:30:57.092Z,4.65
2019-05-23T20:33:27.224Z,3.95
2019-05-23T20:35:57.225Z,4.92
2019-05-23T20:38:28.323Z,5.45
2019-05-23T20:40:58.476Z,4.40
2019-05-23T20:43:29.268Z,4.75
2019-05-23T20:45:59.349Z,3.35
2019-05-23T20:48:30.767Z,5.72
2019-05-23T20:51:01.554Z,5.35
2019-05-23T20:53:31.844Z,3.70
2019-05-23T20:56:01.396Z,5.47
2019-05-23T20:58:32.221Z,5.45
2019-05-23T21:01:26.923Z,6.28
2019-05-23T21:03:58.271Z,4.10
2019-05-23T21:06:28.413Z,4.30
2019-05-23T21:09:01.420Z,5.53
2019-05-23T21:11:31.930Z,6.28
2019-05-23T21:14:02.104Z,5.12
2019-05-23T21:16:32.468Z,6.00
2019-05-23T21:19:03.742Z,7.45
2019-05-23T21:21:34.525Z,6.87
2019-05-23T21:24:05.316Z,4.85
2019-05-23T21:26:35.833Z,6.08
2019-05-23T21:29:06.638Z,6.37
2019-05-23T21:31:37.044Z,5.25
2019-05-23T21:34:07.651Z,7.75
2019-05-23T21:36:38.635Z,6.50
2019-05-23T21:39:11.119Z,6.85
2019-05-23T21:41:41.120Z,7.25
2019-05-23T21:44:12.018Z,6.92
2019-05-23T21:46:43.212Z,8.33
2019-05-23T21:49:14.100Z,6.65
2019-05-23T21:51:44.940Z,8.23
2019-05-23T21:54:15.075Z,10.38
2019-05-23T21:56:46.056Z,7.10
2019-05-23T21:59:16.091Z,9.20
2019-05-23T22:01:54.334Z,7.03
2019-05-23T22:04:27.751Z,7.55
2019-05-23T22:06:59.978Z,7.95
2019-05-23T22:09:30.730Z,5.78
2019-05-23T22:12:01.326Z,10.45
2019-05-23T22:14:31.326Z,6.78
2019-05-23T22:17:01.569Z,7.47
2019-05-23T22:19:31.908Z,9.58
2019-05-23T22:22:01.827Z,5.75
2019-05-23T22:24:31.618Z,6.85
2019-05-23T22:27:02.265Z,6.62
2019-05-23T22:29:32.291Z,9.65
2019-05-23T22:32:02.631Z,6.37
2019-05-23T22:34:57.986Z,7.33
2019-05-23T22:37:29.963Z,6.58
2019-05-23T22:39:59.982Z,6.15
2019-05-23T22:42:32.236Z,7.12
2019-05-23T22:45:03.627Z,6.92
2019-05-23T22:47:33.638Z,6.33
2019-05-23T22:50:03.548Z,7.20
2019-05-23T22:52:33.833Z,7.85
2019-05-23T22:55:03.802Z,6.87
2019-05-23T22:57:34.581Z,7.55
2019-05-23T23:00:04.462Z,7.40
2019-05-23T23:02:34.420Z,6.30
2019-05-23T23:05:04.524Z,6.80
2019-05-23T23:07:34.726Z,9.93
2019-05-23T23:10:04.744Z,7.92
2019-05-23T23:12:34.649Z,7.10
2019-05-23T23:15:04.629Z,8.05
2019-05-23T23:17:34.431Z,7.37
2019-05-23T23:20:04.910Z,6.40
2019-05-23T23:22:35.102Z,8.30
2019-05-23T23:25:05.213Z,5.37
2019-05-23T23:27:34.832Z,6.92
2019-05-23T23:30:04.909Z,7.05
2019-05-23T23:32:35.478Z,5.90
2019-05-23T23:35:05.587Z,6.03
2019-05-23T23:37:35.543Z,7.50
2019-05-23T23:40:06.306Z,5.58
2019-05-23T23:42:36.331Z,6.20
2019-05-23T23:45:23.961Z,5.12
2019-05-23T23:48:11.269Z,6.50
2019-05-23T23:50:58.908Z,8.95
2019-05-23T23:53:46.062Z,5.83
2019-05-23T23:56:33.403Z,7.22
2019-05-23T23:59:01.873Z,4.30
